Gildeskaal — LLDI — position and weather

sailwx.info

Track history (hours):
 
Tides and Currents Weather Stations Pressure Air Temp Water Temp Dewpoint Dewpoint Depression Visibility Wind Speed Wind Dir Waves Ship Positions

Gildeskaal

Last reported at 2015-Jul-28 09:33 UTC. Time now 2015-Jul-28 10:24 UTC.
Position N 67°06' E 013°59'.

Length 52 m; draft 3.2 m.

Type: Ship. MMSI: 259680000.

Date/timePositionNaut miles runAvg speedWind from/ knotsBaromVisibWave heightAir tempDewpointWater temp
2015-Jul-28 09:33N 67°06' E 013°59'3 2.5
2015-Jul-28 08:33N 67°08' E 013°59'1 1.1
2015-Jul-28 07:33N 67°07' E 013°59'2 1.2
2015-Jul-28 05:30N 67°05' E 014°02'3 3.6
2015-Jul-28 04:33N 67°08' E 013°59'0 0.0
2015-Jul-28 03:33N 67°08' E 013°59'0 0.0
2015-Jul-28 02:33N 67°08' E 013°59'0 0.0
2015-Jul-28 01:33N 67°08' E 013°59'0 0.0
2015-Jul-28 00:33N 67°08' E 013°59'0 0.0
2015-Jul-27 23:33N 67°08' E 013°59'0 0.0
2015-Jul-27 22:33N 67°08' E 013°59'0 0.0
2015-Jul-27 21:33N 67°08' E 013°59'0 0.0
2015-Jul-27 20:33N 67°08' E 013°59'0 0.0
2015-Jul-27 19:33N 67°08' E 013°59'4 4.0
2015-Jul-27 18:32N 67°05' E 014°04'3 3.5
2015-Jul-27 17:33N 67°07' E 013°59'2 2.2
2015-Jul-27 16:33N 67°05' E 014°00'3 2.9
2015-Jul-27 15:33N 67°08' E 013°59'3 3.4
2015-Jul-27 14:33N 67°05' E 014°02'1 1.0
2015-Jul-27 13:28N 67°04' E 014°04'4 4.7
2015-Jul-27 12:33N 67°08' E 013°59'2 0.8
2015-Jul-27 09:33N 67°06' E 013°59'2 2.5
2015-Jul-27 08:33N 67°08' E 013°59'1 1.3
2015-Jul-27 07:33N 67°07' E 013°59'2 1.1
2015-Jul-27 05:28N 67°05' E 014°02'3 3.8
2015-Jul-27 04:33N 67°08' E 013°59'0 0.0
2015-Jul-27 03:33N 67°08' E 013°59'0 0.0
2015-Jul-27 02:33N 67°08' E 013°59'0 0.0
2015-Jul-27 01:33N 67°08' E 013°59'0 0.0
2015-Jul-27 00:33N 67°08' E 013°59'0 0.0
2015-Jul-26 23:33N 67°08' E 013°59'0 0.0
2015-Jul-26 22:33N 67°08' E 013°59'0 0.0
2015-Jul-26 21:33N 67°08' E 013°59'0 0.0
2015-Jul-26 20:33N 67°08' E 013°59'0 0.0
2015-Jul-26 19:33N 67°08' E 013°59'4 1.8
2015-Jul-26 17:33N 67°05' E 014°03'2 2.5
2015-Jul-26 16:33N 67°07' E 013°59'3 3.0
2015-Jul-26 15:29N 67°04' E 014°04'4 4.7
2015-Jul-26 14:33N 67°08' E 013°59'1 1.5
2015-Jul-26 13:33N 67°07' E 013°59'3 0.6
2015-Jul-26 08:32N 67°05' E 014°04'3 3.3
2015-Jul-26 07:33N 67°07' E 013°59'3 0.2
2015-Jul-25 17:31N 67°05' E 014°04'3 3.4
2015-Jul-25 16:33N 67°07' E 013°59'2 2.0
2015-Jul-25 15:33N 67°05' E 013°60'1 0.8
2015-Jul-25 14:33N 67°05' E 014°02'1 0.3
2015-Jul-25 09:33N 67°06' E 013°59'2 2.5
2015-Jul-25 08:33N 67°08' E 013°59'2 1.6
2015-Jul-25 07:33N 67°07' E 013°59'2 1.9
2015-Jul-25 06:30N 67°05' E 014°02'3 3.6
2015-Jul-25 05:33N 67°08' E 013°59'0 0.0
2015-Jul-25 04:33N 67°08' E 013°59'0 0.0
2015-Jul-25 03:33N 67°08' E 013°59'0 0.0
2015-Jul-25 02:33N 67°08' E 013°59'0 0.0
2015-Jul-25 01:33N 67°08' E 013°59'0 0.0
2015-Jul-25 00:33N 67°08' E 013°59'0 0.0
2015-Jul-24 23:33N 67°08' E 013°59'0 0.0
2015-Jul-24 22:33N 67°08' E 013°59'0 0.0
2015-Jul-24 21:33N 67°08' E 013°59'0 0.0
2015-Jul-24 20:33N 67°08' E 013°59'0 0.0
2015-Jul-24 19:33N 67°08' E 013°59'4 3.9
2015-Jul-24 18:32N 67°05' E 014°04'3 2.9
2015-Jul-24 17:33N 67°07' E 013°59'2 0.8
2015-Jul-24 15:32N 67°05' E 014°00'1 0.5
2015-Jul-24 14:33N 67°05' E 014°01'0 0.3
2015-Jul-24 13:28N 67°05' E 014°02'3 3.7
2015-Jul-24 12:33N 67°08' E 013°59'0 0.0
2015-Jul-24 11:33N 67°08' E 013°59'3 3.4
2015-Jul-24 10:33N 67°05' E 014°02'1 1.4
2015-Jul-24 09:33N 67°06' E 013°59'2 2.4
2015-Jul-24 08:33N 67°08' E 013°59'2 1.8
2015-Jul-24 07:33N 67°06' E 013°59'2 0.9
2015-Jul-24 05:28N 67°05' E 014°02'3 3.8
2015-Jul-24 04:33N 67°08' E 013°59'0 0.0
2015-Jul-24 03:33N 67°08' E 013°59'0 0.0
2015-Jul-24 02:33N 67°08' E 013°59'0 0.0
2015-Jul-24 01:33N 67°08' E 013°59'0 0.0
2015-Jul-24 00:33N 67°08' E 013°59'0 0.0
2015-Jul-23 23:33N 67°08' E 013°59'0 0.0
2015-Jul-23 22:33N 67°08' E 013°59'0 0.0
2015-Jul-23 21:33N 67°08' E 013°59'0 0.0
2015-Jul-23 20:33N 67°08' E 013°59'0 0.0
2015-Jul-23 19:33N 67°08' E 013°59'4 3.9
2015-Jul-23 18:33N 67°05' E 014°04'3 2.8
2015-Jul-23 17:33N 67°07' E 013°59'2 1.7
2015-Jul-23 16:33N 67°05' E 014°00'3 3.1
2015-Jul-23 15:33N 67°08' E 013°59'4 1.9
2015-Jul-23 13:33N 67°05' E 014°04'4 3.9
2015-Jul-23 12:33N 67°08' E 013°59'0 0.0
2015-Jul-23 11:33N 67°08' E 013°59'3 2.6
2015-Jul-23 10:33N 67°06' E 013°59'0 0.1
2015-Jul-23 09:33N 67°06' E 013°59'3 2.5
2015-Jul-23 08:33N 67°08' E 013°59'2 1.6
2015-Jul-23 07:33N 67°07' E 013°59'2 1.0
2015-Jul-23 05:28N 67°05' E 014°02'3 3.7
2015-Jul-23 04:33N 67°08' E 013°59'0 0.0
2015-Jul-23 03:33N 67°08' E 013°59'0 0.0
2015-Jul-23 02:33N 67°08' E 013°59'0 0.0
2015-Jul-23 01:33N 67°08' E 013°59'0 0.0
2015-Jul-23 00:33N 67°08' E 013°59'0 0.0
2015-Jul-22 23:33N 67°08' E 013°59'0 0.0
2015-Jul-22 22:33N 67°08' E 013°59'0 0.0
2015-Jul-22 21:33N 67°08' E 013°59'0 0.0
2015-Jul-22 20:33N 67°08' E 013°59'0 0.0
2015-Jul-22 19:33N 67°08' E 013°59'4 4.3
2015-Jul-22 18:33N 67°04' E 014°04'3 3.5
2015-Jul-22 17:33N 67°07' E 013°59'2 2.1
2015-Jul-22 16:33N 67°05' E 014°01'3 3.1
2015-Jul-22 15:33N 67°08' E 013°59'4 1.9
2015-Jul-22 13:33N 67°05' E 014°04'4 3.8
2015-Jul-22 12:33N 67°08' E 013°59'0 0.0
2015-Jul-22 11:33N 67°08' E 013°59'3 2.5
2015-Jul-22 10:33N 67°06' E 013°59'0 0.2
2015-Jul-22 09:33N 67°06' E 013°59'2 2.4
2015-Jul-22 08:33N 67°08' E 013°59'1 1.3
2015-Jul-22 07:33N 67°07' E 013°59'2 1.1
2015-Jul-22 05:30N 67°05' E 014°02'3 3.6
2015-Jul-22 04:33N 67°08' E 013°59'0 0.0
2015-Jul-22 03:33N 67°08' E 013°59'0 0.0
2015-Jul-22 02:33N 67°08' E 013°59'0 0.0
2015-Jul-22 01:33N 67°08' E 013°59'0 0.0
2015-Jul-22 00:33N 67°08' E 013°59'0 0.0
2015-Jul-21 23:33N 67°08' E 013°59'0 0.0
2015-Jul-21 22:33N 67°08' E 013°59'0 0.0
2015-Jul-21 21:33N 67°08' E 013°59'0 0.0
2015-Jul-21 20:33N 67°08' E 013°59'0 0.0
2015-Jul-21 19:33N 67°08' E 013°59'4 4.0
2015-Jul-21 18:33N 67°05' E 014°04'3 2.6
2015-Jul-21 17:33N 67°06' E 013°59'1 0.7
2015-Jul-21 16:34N 67°06' E 013°59'3 2.6
2015-Jul-21 15:33N 67°08' E 013°59'4 2.1
2015-Jul-21 13:32N 67°05' E 014°04'4 4.2
2015-Jul-21 12:33N 67°08' E 013°59'0 0.0
2015-Jul-21 11:33N 67°08' E 013°59'3 3.1
2015-Jul-21 10:33N 67°05' E 014°01'0 0.4
2015-Jul-21 09:33N 67°05' E 013°60'3 2.8
2015-Jul-21 08:33N 67°08' E 013°59'1 1.0
2015-Jul-21 07:33N 67°07' E 013°59'2 1.2
2015-Jul-21 05:26N 67°05' E 014°02'3 3.8
2015-Jul-21 04:33N 67°08' E 013°59'0 0.0
2015-Jul-21 03:33N 67°08' E 013°59'0 0.0
2015-Jul-21 02:33N 67°08' E 013°59'0 0.0
2015-Jul-21 01:33N 67°08' E 013°59'0 0.0
2015-Jul-21 00:33N 67°08' E 013°59'0 0.0
2015-Jul-20 23:33N 67°08' E 013°59'0 0.0
2015-Jul-20 22:33N 67°08' E 013°59'0 0.0
2015-Jul-20 21:33N 67°08' E 013°59'0 0.0
2015-Jul-20 20:33N 67°08' E 013°59'0 0.0
2015-Jul-20 19:33N 67°08' E 013°59'4 4.3
2015-Jul-20 18:33N 67°04' E 014°04'3 3.4
2015-Jul-20 17:33N 67°07' E 013°59'2 2.3
2015-Jul-20 16:33N 67°05' E 014°01'3 3.3
2015-Jul-20 15:33N 67°08' E 013°59'3 3.3
2015-Jul-20 14:33N 67°05' E 014°01'1 0.9
2015-Jul-20 13:20N 67°05' E 014°04'4 5.2
2015-Jul-20 12:33N 67°08' E 013°59'3 0.9
2015-Jul-20 09:33N 67°06' E 013°59'3 2.6
2015-Jul-20 08:33N 67°08' E 013°59'1 0.9
2015-Jul-20 07:33N 67°07' E 013°59'3 1.2
2015-Jul-20 05:26N 67°05' E 014°02'3 3.8
2015-Jul-20 04:33N 67°08' E 013°59'0 0.0
2015-Jul-20 03:33N 67°08' E 013°59'0 0.0
2015-Jul-20 02:33N 67°08' E 013°59'0 0.0
2015-Jul-20 01:33N 67°08' E 013°59'0 0.0
2015-Jul-20 00:33N 67°08' E 013°59'0 0.0
2015-Jul-19 23:33N 67°08' E 013°59'0 0.0
2015-Jul-19 22:33N 67°08' E 013°59'0 0.0
2015-Jul-19 21:33N 67°08' E 013°59'0 0.0
2015-Jul-19 20:33N 67°08' E 013°59'0 0.0
2015-Jul-19 19:33N 67°08' E 013°59'4 4.0
2015-Jul-19 18:33N 67°05' E 014°04'1 0.7
2015-Jul-19 17:21N 67°05' E 014°02'2 3.1
2015-Jul-19 16:33N 67°07' E 013°59'3 2.9
2015-Jul-19 15:26N 67°05' E 014°04'4 4.7
2015-Jul-19 14:33N 67°08' E 013°59'1 1.3
2015-Jul-19 13:33N 67°07' E 013°59'3 0.7
2015-Jul-19 08:33N 67°04' E 014°04'4 3.9
2015-Jul-19 07:33N 67°08' E 013°59'4 0.2
2015-Jul-18 17:29N 67°05' E 014°04'3 3.7
2015-Jul-18 16:33N 67°08' E 013°59'2 2.4
2015-Jul-18 15:33N 67°05' E 014°00'1 1.1
2015-Jul-18 14:21N 67°05' E 014°03'1 0.2
2015-Jul-18 10:29N 67°04' E 014°04'  
Track history (hours):
 
Tides and Currents Weather Stations Pressure Air Temp Water Temp Dewpoint Dewpoint Depression Visibility Wind Speed Wind Dir Waves Ship Positions

Gildeskaal

Last reported at 2015-Jul-28 09:33 UTC. Time now 2015-Jul-28 10:24 UTC.
Position N 67°06' E 013°59'.

Length 52 m; draft 3.2 m.

Type: Ship. MMSI: 259680000.

Date/timePositionNaut miles runAvg speedWind from/ knotsBaromVisibWave heightAir tempDewpointWater temp
2015-Jul-28 09:33N 67°06' E 013°59'3 2.5
2015-Jul-28 08:33N 67°08' E 013°59'1 1.1
2015-Jul-28 07:33N 67°07' E 013°59'2 1.2
2015-Jul-28 05:30N 67°05' E 014°02'3 3.6
2015-Jul-28 04:33N 67°08' E 013°59'0 0.0
2015-Jul-28 03:33N 67°08' E 013°59'0 0.0
2015-Jul-28 02:33N 67°08' E 013°59'0 0.0
2015-Jul-28 01:33N 67°08' E 013°59'0 0.0
2015-Jul-28 00:33N 67°08' E 013°59'0 0.0
2015-Jul-27 23:33N 67°08' E 013°59'0 0.0
2015-Jul-27 22:33N 67°08' E 013°59'0 0.0
2015-Jul-27 21:33N 67°08' E 013°59'0 0.0
2015-Jul-27 20:33N 67°08' E 013°59'0 0.0
2015-Jul-27 19:33N 67°08' E 013°59'4 4.0
2015-Jul-27 18:32N 67°05' E 014°04'3 3.5
2015-Jul-27 17:33N 67°07' E 013°59'2 2.2
2015-Jul-27 16:33N 67°05' E 014°00'3 2.9
2015-Jul-27 15:33N 67°08' E 013°59'3 3.4
2015-Jul-27 14:33N 67°05' E 014°02'1 1.0
2015-Jul-27 13:28N 67°04' E 014°04'4 4.7
2015-Jul-27 12:33N 67°08' E 013°59'2 0.8
2015-Jul-27 09:33N 67°06' E 013°59'2 2.5
2015-Jul-27 08:33N 67°08' E 013°59'1 1.3
2015-Jul-27 07:33N 67°07' E 013°59'2 1.1
2015-Jul-27 05:28N 67°05' E 014°02'3 3.8
2015-Jul-27 04:33N 67°08' E 013°59'0 0.0
2015-Jul-27 03:33N 67°08' E 013°59'0 0.0
2015-Jul-27 02:33N 67°08' E 013°59'0 0.0
2015-Jul-27 01:33N 67°08' E 013°59'0 0.0
2015-Jul-27 00:33N 67°08' E 013°59'0 0.0
2015-Jul-26 23:33N 67°08' E 013°59'0 0.0
2015-Jul-26 22:33N 67°08' E 013°59'0 0.0
2015-Jul-26 21:33N 67°08' E 013°59'0 0.0
2015-Jul-26 20:33N 67°08' E 013°59'0 0.0
2015-Jul-26 19:33N 67°08' E 013°59'4 1.8
2015-Jul-26 17:33N 67°05' E 014°03'2 2.5
2015-Jul-26 16:33N 67°07' E 013°59'3 3.0
2015-Jul-26 15:29N 67°04' E 014°04'4 4.7
2015-Jul-26 14:33N 67°08' E 013°59'1 1.5
2015-Jul-26 13:33N 67°07' E 013°59'3 0.6
2015-Jul-26 08:32N 67°05' E 014°04'3 3.3
2015-Jul-26 07:33N 67°07' E 013°59'3 0.2
2015-Jul-25 17:31N 67°05' E 014°04'3 3.4
2015-Jul-25 16:33N 67°07' E 013°59'2 2.0
2015-Jul-25 15:33N 67°05' E 013°60'1 0.8
2015-Jul-25 14:33N 67°05' E 014°02'1 0.3
2015-Jul-25 09:33N 67°06' E 013°59'2 2.5
2015-Jul-25 08:33N 67°08' E 013°59'2 1.6
2015-Jul-25 07:33N 67°07' E 013°59'2 1.9
2015-Jul-25 06:30N 67°05' E 014°02'3 3.6
2015-Jul-25 05:33N 67°08' E 013°59'0 0.0
2015-Jul-25 04:33N 67°08' E 013°59'0 0.0
2015-Jul-25 03:33N 67°08' E 013°59'0 0.0
2015-Jul-25 02:33N 67°08' E 013°59'0 0.0
2015-Jul-25 01:33N 67°08' E 013°59'0 0.0
2015-Jul-25 00:33N 67°08' E 013°59'0 0.0
2015-Jul-24 23:33N 67°08' E 013°59'0 0.0
2015-Jul-24 22:33N 67°08' E 013°59'0 0.0
2015-Jul-24 21:33N 67°08' E 013°59'0 0.0
2015-Jul-24 20:33N 67°08' E 013°59'0 0.0
2015-Jul-24 19:33N 67°08' E 013°59'4 3.9
2015-Jul-24 18:32N 67°05' E 014°04'3 2.9
2015-Jul-24 17:33N 67°07' E 013°59'2 0.8
2015-Jul-24 15:32N 67°05' E 014°00'1 0.5
2015-Jul-24 14:33N 67°05' E 014°01'0 0.3
2015-Jul-24 13:28N 67°05' E 014°02'3 3.7
2015-Jul-24 12:33N 67°08' E 013°59'0 0.0
2015-Jul-24 11:33N 67°08' E 013°59'3 3.4
2015-Jul-24 10:33N 67°05' E 014°02'1 1.4
2015-Jul-24 09:33N 67°06' E 013°59'2 2.4
2015-Jul-24 08:33N 67°08' E 013°59'2 1.8
2015-Jul-24 07:33N 67°06' E 013°59'2 0.9
2015-Jul-24 05:28N 67°05' E 014°02'3 3.8
2015-Jul-24 04:33N 67°08' E 013°59'0 0.0
2015-Jul-24 03:33N 67°08' E 013°59'0 0.0
2015-Jul-24 02:33N 67°08' E 013°59'0 0.0
2015-Jul-24 01:33N 67°08' E 013°59'0 0.0
2015-Jul-24 00:33N 67°08' E 013°59'0 0.0
2015-Jul-23 23:33N 67°08' E 013°59'0 0.0
2015-Jul-23 22:33N 67°08' E 013°59'0 0.0
2015-Jul-23 21:33N 67°08' E 013°59'0 0.0
2015-Jul-23 20:33N 67°08' E 013°59'0 0.0
2015-Jul-23 19:33N 67°08' E 013°59'4 3.9
2015-Jul-23 18:33N 67°05' E 014°04'3 2.8
2015-Jul-23 17:33N 67°07' E 013°59'2 1.7
2015-Jul-23 16:33N 67°05' E 014°00'3 3.1
2015-Jul-23 15:33N 67°08' E 013°59'4 1.9
2015-Jul-23 13:33N 67°05' E 014°04'4 3.9
2015-Jul-23 12:33N 67°08' E 013°59'0 0.0
2015-Jul-23 11:33N 67°08' E 013°59'3 2.6
2015-Jul-23 10:33N 67°06' E 013°59'0 0.1
2015-Jul-23 09:33N 67°06' E 013°59'3 2.5
2015-Jul-23 08:33N 67°08' E 013°59'2 1.6
2015-Jul-23 07:33N 67°07' E 013°59'2 1.0
2015-Jul-23 05:28N 67°05' E 014°02'3 3.7
2015-Jul-23 04:33N 67°08' E 013°59'0 0.0
2015-Jul-23 03:33N 67°08' E 013°59'0 0.0
2015-Jul-23 02:33N 67°08' E 013°59'0 0.0
2015-Jul-23 01:33N 67°08' E 013°59'0 0.0
2015-Jul-23 00:33N 67°08' E 013°59'0 0.0
2015-Jul-22 23:33N 67°08' E 013°59'0 0.0
2015-Jul-22 22:33N 67°08' E 013°59'0 0.0
2015-Jul-22 21:33N 67°08' E 013°59'0 0.0
2015-Jul-22 20:33N 67°08' E 013°59'0 0.0
2015-Jul-22 19:33N 67°08' E 013°59'4 4.3
2015-Jul-22 18:33N 67°04' E 014°04'3 3.5
2015-Jul-22 17:33N 67°07' E 013°59'2 2.1
2015-Jul-22 16:33N 67°05' E 014°01'3 3.1
2015-Jul-22 15:33N 67°08' E 013°59'4 1.9
2015-Jul-22 13:33N 67°05' E 014°04'4 3.8
2015-Jul-22 12:33N 67°08' E 013°59'0 0.0
2015-Jul-22 11:33N 67°08' E 013°59'3 2.5
2015-Jul-22 10:33N 67°06' E 013°59'0 0.2
2015-Jul-22 09:33N 67°06' E 013°59'2 2.4
2015-Jul-22 08:33N 67°08' E 013°59'1 1.3
2015-Jul-22 07:33N 67°07' E 013°59'2 1.1
2015-Jul-22 05:30N 67°05' E 014°02'3 3.6
2015-Jul-22 04:33N 67°08' E 013°59'0 0.0
2015-Jul-22 03:33N 67°08' E 013°59'0 0.0
2015-Jul-22 02:33N 67°08' E 013°59'0 0.0
2015-Jul-22 01:33N 67°08' E 013°59'0 0.0
2015-Jul-22 00:33N 67°08' E 013°59'0 0.0
2015-Jul-21 23:33N 67°08' E 013°59'0 0.0
2015-Jul-21 22:33N 67°08' E 013°59'0 0.0
2015-Jul-21 21:33N 67°08' E 013°59'0 0.0
2015-Jul-21 20:33N 67°08' E 013°59'0 0.0
2015-Jul-21 19:33N 67°08' E 013°59'4 4.0
2015-Jul-21 18:33N 67°05' E 014°04'3 2.6
2015-Jul-21 17:33N 67°06' E 013°59'1 0.7
2015-Jul-21 16:34N 67°06' E 013°59'3 2.6
2015-Jul-21 15:33N 67°08' E 013°59'4 2.1
2015-Jul-21 13:32N 67°05' E 014°04'4 4.2
2015-Jul-21 12:33N 67°08' E 013°59'0 0.0
2015-Jul-21 11:33N 67°08' E 013°59'3 3.1
2015-Jul-21 10:33N 67°05' E 014°01'0 0.4
2015-Jul-21 09:33N 67°05' E 013°60'3 2.8
2015-Jul-21 08:33N 67°08' E 013°59'1 1.0
2015-Jul-21 07:33N 67°07' E 013°59'2 1.2
2015-Jul-21 05:26N 67°05' E 014°02'3 3.8
2015-Jul-21 04:33N 67°08' E 013°59'0 0.0
2015-Jul-21 03:33N 67°08' E 013°59'0 0.0
2015-Jul-21 02:33N 67°08' E 013°59'0 0.0
2015-Jul-21 01:33N 67°08' E 013°59'0 0.0
2015-Jul-21 00:33N 67°08' E 013°59'0 0.0
2015-Jul-20 23:33N 67°08' E 013°59'0 0.0
2015-Jul-20 22:33N 67°08' E 013°59'0 0.0
2015-Jul-20 21:33N 67°08' E 013°59'0 0.0
2015-Jul-20 20:33N 67°08' E 013°59'0 0.0
2015-Jul-20 19:33N 67°08' E 013°59'4 4.3
2015-Jul-20 18:33N 67°04' E 014°04'3 3.4
2015-Jul-20 17:33N 67°07' E 013°59'2 2.3
2015-Jul-20 16:33N 67°05' E 014°01'3 3.3
2015-Jul-20 15:33N 67°08' E 013°59'3 3.3
2015-Jul-20 14:33N 67°05' E 014°01'1 0.9
2015-Jul-20 13:20N 67°05' E 014°04'4 5.2
2015-Jul-20 12:33N 67°08' E 013°59'3 0.9
2015-Jul-20 09:33N 67°06' E 013°59'3 2.6
2015-Jul-20 08:33N 67°08' E 013°59'1 0.9
2015-Jul-20 07:33N 67°07' E 013°59'3 1.2
2015-Jul-20 05:26N 67°05' E 014°02'3 3.8
2015-Jul-20 04:33N 67°08' E 013°59'0 0.0
2015-Jul-20 03:33N 67°08' E 013°59'0 0.0
2015-Jul-20 02:33N 67°08' E 013°59'0 0.0
2015-Jul-20 01:33N 67°08' E 013°59'0 0.0
2015-Jul-20 00:33N 67°08' E 013°59'0 0.0
2015-Jul-19 23:33N 67°08' E 013°59'0 0.0
2015-Jul-19 22:33N 67°08' E 013°59'0 0.0
2015-Jul-19 21:33N 67°08' E 013°59'0 0.0
2015-Jul-19 20:33N 67°08' E 013°59'0 0.0
2015-Jul-19 19:33N 67°08' E 013°59'4 4.0
2015-Jul-19 18:33N 67°05' E 014°04'1 0.7
2015-Jul-19 17:21N 67°05' E 014°02'2 3.1
2015-Jul-19 16:33N 67°07' E 013°59'3 2.9
2015-Jul-19 15:26N 67°05' E 014°04'4 4.7
2015-Jul-19 14:33N 67°08' E 013°59'1 1.3
2015-Jul-19 13:33N 67°07' E 013°59'3 0.7
2015-Jul-19 08:33N 67°04' E 014°04'4 3.9
2015-Jul-19 07:33N 67°08' E 013°59'4 0.2
2015-Jul-18 17:29N 67°05' E 014°04'3 3.7
2015-Jul-18 16:33N 67°08' E 013°59'2 2.4
2015-Jul-18 15:33N 67°05' E 014°00'1 1.1
2015-Jul-18 14:21N 67°05' E 014°03'1 0.2
2015-Jul-18 10:29N 67°04' E 014°04'  

Dump ship's entire track history